Time;durP1;ratioP1;P1;durP2;ratioP2;P2;SDS_P1;SDS_P2;PMS_P1;PMS_P2;Temp;Humidity;BMP_temperature;BMP_pressure;BME280_temperature;BME280_humidity;BME280_pressure;Samples;Min_cycle;Max_cycle;Signal;HPM_P1;HPM_P2
2021/12/20 00:02:23;;;;;;;19.25;3.03;;;;;;;3.93;72.40;101930.69;5049739;28;20517;-68
2021/12/20 00:04:51;;;;;;;22.27;4.55;;;;;;;3.93;72.19;101929.81;5049085;28;20545;-69
2021/12/20 00:07:18;;;;;;;17.33;3.22;;;;;;;3.83;72.63;101923.81;5045359;28;20053;-69
2021/12/20 00:09:44;;;;;;;19.08;2.60;;;;;;;3.88;71.86;101927.22;5049174;28;20490;-69
2021/12/20 00:12:12;;;;;;;13.93;2.30;;;;;;;4.00;71.17;101938.41;5048858;28;20551;-69
2021/12/20 00:14:38;;;;;;;11.75;2.58;;;;;;;3.87;71.53;101937.63;5048466;28;20109;-69
2021/12/20 00:17:05;;;;;;;17.13;3.80;;;;;;;3.88;70.95;101932.41;5048547;28;20052;-69
2021/12/20 00:19:31;;;;;;;14.05;2.70;;;;;;;3.68;71.67;101931.66;5048295;28;20125;-69
2021/12/20 00:21:57;;;;;;;13.30;2.75;;;;;;;3.70;71.74;101913.50;5048925;28;20064;-69
2021/12/20 00:24:24;;;;;;;23.90;3.05;;;;;;;3.63;71.34;101928.22;5050060;28;20460;-69
2021/12/20 00:26:50;;;;;;;16.88;2.90;;;;;;;3.47;72.01;101926.59;5049162;28;20563;-69
2021/12/20 00:29:18;;;;;;;9.07;2.28;;;;;;;3.32;72.35;101931.81;5048742;28;20048;-69
2021/12/20 00:31:44;;;;;;;9.80;2.15;;;;;;;3.24;72.65;101934.44;5048157;28;20099;-69
2021/12/20 00:34:10;;;;;;;7.50;3.13;;;;;;;3.16;72.58;101930.97;5048483;28;20053;-69
2021/12/20 00:36:37;;;;;;;20.08;2.67;;;;;;;3.19;72.59;101935.28;5048567;28;20049;-69
2021/12/20 00:41:47;;;;;;;13.20;2.10;;;;;;;2.97;73.12;101943.97;5029172;28;20053;-69
2021/12/20 00:44:13;;;;;;;8.80;1.88;;;;;;;3.31;72.00;101943.03;5047578;28;20045;-69
2021/12/20 00:46:41;;;;;;;10.43;2.08;;;;;;;3.45;71.59;101943.84;5048284;28;20114;-69
2021/12/20 00:49:07;;;;;;;11.00;1.70;;;;;;;3.67;70.60;101942.91;5047677;28;20563;-69
2021/12/20 00:51:34;;;;;;;10.73;2.15;;;;;;;3.08;72.08;101950.00;5048691;28;20143;-69
2021/12/20 00:54:00;;;;;;;10.25;1.90;;;;;;;3.00;72.55;101943.97;5048566;28;20068;-69
2021/12/20 00:56:26;;;;;;;9.85;2.67;;;;;;;3.18;71.83;101939.59;5048747;28;20091;-69
2021/12/20 00:58:53;;;;;;;15.35;3.08;;;;;;;3.21;71.21;101954.31;5048702;28;20079;-70
2021/12/20 01:01:19;;;;;;;11.05;2.67;;;;;;;3.31;70.92;101950.81;5054990;28;20060;-69
2021/12/20 01:03:47;;;;;;;13.70;2.00;;;;;;;3.08;71.62;101958.63;5054871;28;20095;-69
2021/12/20 01:06:13;;;;;;;8.57;2.15;;;;;;;3.18;71.14;101954.31;5052558;28;20110;-69
2021/12/20 01:08:41;;;;;;;14.45;1.98;;;;;;;3.25;71.20;101963.81;5045744;28;20048;-69
2021/12/20 01:11:08;;;;;;;8.57;1.73;;;;;;;3.39;69.84;101954.25;5054348;28;20107;-69
2021/12/20 01:13:39;;;;;;;10.77;1.63;;;;;;;3.33;70.48;101965.50;5054411;28;20060;-69
2021/12/20 01:16:07;;;;;;;9.25;1.73;;;;;;;3.31;69.91;101958.59;5055578;28;20131;-69
2021/12/20 01:18:33;;;;;;;7.32;1.92;;;;;;;3.04;70.93;101961.22;5055161;28;20044;-69
2021/12/20 01:21:01;;;;;;;8.82;1.70;;;;;;;3.35;69.78;101966.38;5054792;28;20049;-69
2021/12/20 01:23:27;;;;;;;10.77;1.83;;;;;;;3.36;69.36;101975.84;5044129;28;20072;-69
2021/12/20 01:25:54;;;;;;;10.68;1.70;;;;;;;3.14;70.39;101983.69;5035235;28;20191;-69
2021/12/20 01:28:20;;;;;;;3.90;1.70;;;;;;;3.30;69.45;101982.78;5034920;28;20069;-69
2021/12/20 01:30:46;;;;;;;11.07;1.80;;;;;;;3.31;69.07;101966.38;5043735;28;20574;-70
2021/12/20 01:33:13;;;;;;;13.00;1.52;;;;;;;3.13;69.90;101969.00;5053181;28;20520;-69
2021/12/20 01:35:40;;;;;;;15.13;1.85;;;;;;;2.98;70.58;101969.88;5052960;28;20049;-69
2021/12/20 01:38:09;;;;;;;7.38;2.47;;;;;;;2.95;70.60;101972.50;5046898;28;20091;-69
2021/12/20 01:40:36;;;;;;;5.22;1.50;;;;;;;2.95;70.37;101982.84;5052034;28;20741;-69
2021/12/20 01:43:05;;;;;;;9.85;1.95;;;;;;;2.89;69.73;101972.47;5052227;28;20497;-70
2021/12/20 01:45:31;;;;;;;12.85;1.92;;;;;;;3.24;68.83;101969.84;5053222;28;20048;-69
2021/12/20 01:48:05;;;;;;;7.03;1.52;;;;;;;3.17;68.91;101969.00;5053046;28;20072;-69
2021/12/20 01:50:47;;;;;;;12.43;3.17;;;;;;;2.82;69.69;101976.81;5052371;28;20068;-69
2021/12/20 01:53:18;;;;;;;8.32;1.67;;;;;;;2.65;70.97;101988.91;5051104;28;20055;-69
2021/12/20 01:55:45;;;;;;;10.88;1.90;;;;;;;2.71;70.35;101977.66;5053290;28;20485;-70
2021/12/20 01:58:11;;;;;;;4.25;1.80;;;;;;;2.78;70.44;101980.25;5051624;28;20081;-69
2021/12/20 02:03:20;;;;;;;3.50;1.45;;;;;;;2.84;69.93;101974.22;5052539;28;20043;-69
2021/12/20 02:05:52;;;;;;;19.13;2.92;;;;;;;2.46;71.00;101984.56;5044760;28;20052;-70
2021/12/20 02:08:23;;;;;;;6.80;1.65;;;;;;;2.42;71.06;101973.34;5048499;28;20079;-69
2021/12/20 02:10:53;;;;;;;8.70;2.63;;;;;;;2.80;70.06;101986.31;5050540;28;20056;-69
2021/12/20 02:13:20;;;;;;;4.85;1.92;;;;;;;2.87;69.74;101977.69;5049752;28;20049;-69
2021/12/20 02:15:47;;;;;;;5.82;1.50;;;;;;;2.76;70.03;101976.81;5049307;28;20570;-69
2021/12/20 02:18:13;;;;;;;8.98;2.08;;;;;;;2.86;69.24;101969.88;5048315;28;20084;-70
2021/12/20 02:20:41;;;;;;;4.65;2.00;;;;;;;2.51;70.59;101969.03;5049254;28;20497;-70
2021/12/20 02:23:08;;;;;;;11.43;2.15;;;;;;;2.55;70.69;101971.59;5049572;28;20072;-69
2021/12/20 02:25:36;;;;;;;10.10;1.95;;;;;;;2.20;71.71;101960.34;5048913;28;20060;-69
2021/12/20 02:28:05;;;;;;;15.30;2.22;;;;;;;2.31;71.59;101962.09;5049061;28;20126;-67
2021/12/20 02:30:45;;;;;;;8.23;1.48;;;;;;;2.34;71.92;101966.41;5044424;28;20041;-67
2021/12/20 02:38:44;;;;;;;15.05;2.38;;;;;;;2.16;72.58;101961.22;5044080;28;20056;-70
2021/12/20 02:41:14;;;;;;;11.13;2.13;;;;;;;2.19;72.10;101968.97;5048390;28;20449;-69
2021/12/20 02:43:42;;;;;;;12.65;2.75;;;;;;;2.39;71.68;101959.53;5048344;28;20037;-70
2021/12/20 02:46:26;;;;;;;7.70;1.48;;;;;;;2.56;71.37;101962.97;5049027;28;20053;-70
2021/12/20 02:48:52;;;;;;;15.30;3.05;;;;;;;2.12;72.61;101962.06;5048507;28;20045;-70
2021/12/20 02:51:23;;;;;;;7.53;2.15;;;;;;;2.37;71.66;101964.69;5048851;28;20497;-70
2021/12/20 02:53:50;;;;;;;9.48;2.15;;;;;;;2.25;72.44;101967.28;5048706;28;20116;-69
2021/12/20 02:56:16;;;;;;;18.20;2.63;;;;;;;2.19;72.72;101968.97;5049168;28;20509;-69
2021/12/20 02:58:42;;;;;;;9.77;2.30;;;;;;;2.41;71.89;101975.91;5048101;28;20073;-69
2021/12/20 03:01:09;;;;;;;4.93;1.98;;;;;;;2.28;72.20;101977.63;5044472;28;20076;-69
2021/12/20 03:03:35;;;;;;;7.47;1.85;;;;;;;2.25;72.29;101980.22;5049743;28;20041;-69
2021/12/20 03:06:10;;;;;;;9.48;2.13;;;;;;;2.37;71.96;101987.97;5048998;28;20041;-69
2021/12/20 03:08:38;;;;;;;12.60;1.80;;;;;;;2.49;71.65;101981.09;5048952;28;20513;-69
2021/12/20 03:11:05;;;;;;;14.25;3.20;;;;;;;2.48;71.58;101982.81;5044998;28;20041;-69
2021/12/20 03:13:31;;;;;;;10.60;2.03;;;;;;;2.60;71.18;101987.16;5049902;28;20099;-70
2021/12/20 03:15:58;;;;;;;8.63;2.28;;;;;;;2.45;71.65;101991.44;5050994;28;20053;-69
2021/12/20 03:18:24;;;;;;;15.00;2.67;;;;;;;2.44;71.52;101987.13;5049450;28;20041;-69
2021/12/20 03:20:50;;;;;;;11.43;2.20;;;;;;;2.38;71.63;101988.84;5050237;28;20126;-69
2021/12/20 03:23:17;;;;;;;11.27;2.05;;;;;;;2.38;71.49;101981.09;5048743;28;20076;-69
2021/12/20 03:25:44;;;;;;;7.97;2.05;;;;;;;2.44;71.55;101988.84;5049881;28;20063;-69
2021/12/20 03:28:11;;;;;;;5.90;2.15;;;;;;;2.35;71.63;101983.69;5049721;28;20453;-69
2021/12/20 03:30:37;;;;;;;13.23;2.45;;;;;;;2.35;71.84;101986.25;5045695;28;20049;-69
2021/12/20 03:33:04;;;;;;;15.07;2.30;;;;;;;2.49;71.39;101994.03;5048855;28;20049;-69
2021/12/20 03:35:30;;;;;;;11.10;2.17;;;;;;;2.51;71.02;102003.56;5049952;28;20080;-69
2021/12/20 03:37:57;;;;;;;12.88;2.40;;;;;;;2.55;70.87;101997.50;5048757;28;20114;-69
2021/12/20 03:40:24;;;;;;;10.27;2.30;;;;;;;2.39;71.37;102001.81;5047431;28;20037;-69
2021/12/20 03:42:51;;;;;;;14.75;2.45;;;;;;;2.66;70.65;101995.78;5049597;28;20061;-70
2021/12/20 03:45:18;;;;;;;8.48;2.42;;;;;;;2.66;70.38;102000.97;5050212;28;20264;-68
2021/12/20 03:47:45;;;;;;;15.35;2.20;;;;;;;2.31;71.21;101997.47;5049273;28;20071;-69
2021/12/20 03:50:12;;;;;;;12.73;2.17;;;;;;;2.39;71.35;101996.63;5049488;28;20490;-69
2021/12/20 03:52:39;;;;;;;6.35;2.00;;;;;;;2.50;70.82;101996.66;5049102;28;20060;-69
2021/12/20 03:55:06;;;;;;;10.82;2.47;;;;;;;2.32;71.09;101999.22;5049429;28;20049;-69
2021/12/20 03:57:33;;;;;;;12.23;2.38;;;;;;;2.56;70.21;101994.06;5049435;28;20409;-69
2021/12/20 04:00:01;;;;;;;9.13;2.15;;;;;;;2.56;70.54;101995.78;5049339;28;20091;-69
2021/12/20 04:02:29;;;;;;;8.27;1.92;;;;;;;2.53;70.48;102007.00;5049863;28;20071;-69
2021/12/20 04:04:55;;;;;;;8.80;1.88;;;;;;;2.38;70.85;102009.56;5049480;28;20041;-69
2021/12/20 04:07:22;;;;;;;11.27;2.85;;;;;;;2.13;71.78;102007.78;5048602;28;20563;-69
2021/12/20 04:09:48;;;;;;;11.38;2.03;;;;;;;2.46;70.77;102007.84;5051557;28;20497;-70
2021/12/20 04:12:14;;;;;;;16.60;2.22;;;;;;;2.50;70.35;102006.13;5048084;28;20077;-69
2021/12/20 04:14:41;;;;;;;12.90;2.47;;;;;;;2.43;70.66;102008.72;5044285;28;20064;-70
2021/12/20 04:17:08;;;;;;;10.70;2.70;;;;;;;2.59;70.19;102011.34;5055145;28;20125;-70
2021/12/20 04:19:35;;;;;;;13.45;3.45;;;;;;;2.61;69.77;102013.06;5046369;28;20437;-69
2021/12/20 04:22:01;;;;;;;7.57;2.42;;;;;;;2.70;69.38;102009.59;5049114;28;20045;-69
2021/12/20 04:24:27;;;;;;;9.35;2.33;;;;;;;2.45;70.36;102011.28;5048631;28;20068;-69
2021/12/20 04:26:54;;;;;;;9.70;3.20;;;;;;;2.64;69.59;102007.00;5048277;28;20049;-69
2021/12/20 04:29:20;;;;;;;5.32;2.15;;;;;;;2.68;69.36;102004.44;5048682;28;20074;-69
2021/12/20 04:31:47;;;;;;;10.98;1.98;;;;;;;2.71;69.26;102008.75;5048241;28;20045;-69
2021/12/20 04:34:15;;;;;;;10.27;2.80;;;;;;;2.73;68.82;102013.06;5047470;28;20044;-69
2021/12/20 04:36:41;;;;;;;10.18;2.42;;;;;;;2.78;69.17;102021.69;5045548;28;20114;-69
2021/12/20 04:39:13;;;;;;;17.85;2.70;;;;;;;2.64;69.33;102013.06;5054229;28;20044;-69
2021/12/20 04:41:39;;;;;;;10.27;2.63;;;;;;;2.64;68.98;102007.88;5067975;28;20577;-69
2021/12/20 04:44:06;;;;;;;10.63;3.08;;;;;;;2.65;69.10;102007.03;5056265;28;20548;-69
2021/12/20 04:46:32;;;;;;;20.65;2.75;;;;;;;2.51;69.82;102011.31;5048510;28;20065;-69
2021/12/20 04:48:58;;;;;;;13.27;2.30;;;;;;;2.51;69.73;102023.41;5048637;28;20424;-68
2021/12/20 04:51:26;;;;;;;13.30;2.58;;;;;;;2.65;69.28;102026.88;5048741;28;20578;-68
2021/12/20 04:53:52;;;;;;;8.35;2.83;;;;;;;2.64;69.37;102020.81;5049039;28;20118;-68
2021/12/20 04:56:19;;;;;;;10.93;2.60;;;;;;;2.43;69.93;102013.91;5047607;28;21814;-68
2021/12/20 04:58:45;;;;;;;8.18;2.85;;;;;;;2.38;69.98;102012.16;5048095;28;20167;-68
2021/12/20 05:01:12;;;;;;;19.35;2.70;;;;;;;2.37;70.30;102023.34;5038390;28;20096;-68
2021/12/20 05:03:38;;;;;;;11.05;3.40;;;;;;;2.46;69.98;102015.63;5048708;28;20049;-69
2021/12/20 05:06:04;;;;;;;8.15;2.42;;;;;;;2.46;69.77;102020.81;5039998;28;20077;-69
2021/12/20 05:08:36;;;;;;;6.60;2.70;;;;;;;2.38;69.98;102025.97;5047758;28;20502;-69
2021/12/20 05:11:04;;;;;;;14.40;2.58;;;;;;;2.54;69.61;102032.03;5048615;28;20122;-69
2021/12/20 05:13:32;;;;;;;15.70;2.75;;;;;;;2.55;69.49;102031.16;5048672;28;20110;-69
2021/12/20 05:15:58;;;;;;;9.85;3.65;;;;;;;2.32;69.55;102038.03;5049264;28;20037;-69
2021/12/20 05:18:25;;;;;;;10.43;2.78;;;;;;;2.33;69.82;102034.56;5048292;28;20539;-69
2021/12/20 05:20:51;;;;;;;11.65;2.75;;;;;;;2.29;70.03;102032.84;5048769;28;20041;-69
2021/12/20 05:23:17;;;;;;;10.70;3.22;;;;;;;2.43;69.42;102036.34;5047205;28;20041;-69
2021/12/20 05:25:45;;;;;;;12.32;2.13;;;;;;;2.19;70.03;102047.47;5047819;28;20053;-69
2021/12/20 05:28:11;;;;;;;8.70;2.28;;;;;;;2.04;70.64;102049.13;5047302;28;20559;-69
2021/12/20 05:30:38;;;;;;;8.57;2.70;;;;;;;2.31;69.92;102051.81;5048030;28;20402;-69
2021/12/20 05:33:05;;;;;;;14.18;3.30;;;;;;;2.41;69.06;102046.66;5048080;28;20044;-69
2021/12/20 05:35:31;;;;;;;11.25;3.00;;;;;;;2.18;70.00;102052.66;5047504;28;20098;-69
2021/12/20 05:37:58;;;;;;;9.63;3.38;;;;;;;2.12;69.98;102052.63;5047895;28;20065;-69
2021/12/20 05:40:26;;;;;;;11.95;3.47;;;;;;;2.26;69.37;102056.09;5047812;28;20068;-69
2021/12/20 05:42:53;;;;;;;24.48;5.65;;;;;;;2.38;68.89;102069.97;5046856;28;20438;-69
2021/12/20 05:45:20;;;;;;;14.77;4.80;;;;;;;2.49;68.59;102069.13;5047880;28;20551;-69
2021/12/20 05:47:47;;;;;;;19.80;4.13;;;;;;;2.64;68.19;102070.03;5051421;28;20489;-69
2021/12/20 05:50:17;;;;;;;8.20;3.28;;;;;;;2.57;68.03;102083.81;5052166;28;20562;-69
2021/12/20 05:52:44;;;;;;;6.72;2.65;;;;;;;2.45;68.20;102089.81;5051156;28;20040;-69
2021/12/20 05:55:11;;;;;;;8.93;2.85;;;;;;;2.69;67.58;102072.63;5052182;28;20456;-69
2021/12/20 05:57:38;;;;;;;8.98;2.80;;;;;;;2.56;67.86;102087.25;5050907;28;20045;-69
2021/12/20 06:00:12;;;;;;;16.30;3.83;;;;;;;2.48;68.25;102078.59;5050953;28;20126;-69
2021/12/20 06:02:38;;;;;;;17.70;3.53;;;;;;;2.24;69.14;102081.13;5051333;28;20128;-69
2021/12/20 06:05:06;;;;;;;19.48;3.85;;;;;;;2.14;69.01;102082.81;5051247;28;20072;-69
2021/12/20 06:07:32;;;;;;;18.40;4.47;;;;;;;2.23;69.26;102089.75;5050924;28;20064;-69
2021/12/20 06:09:59;;;;;;;11.75;4.53;;;;;;;2.25;68.93;102094.09;5052119;28;20431;-69
2021/12/20 06:12:25;;;;;;;9.65;3.42;;;;;;;2.17;69.19;102092.31;5051208;28;20064;-69
2021/12/20 06:14:51;;;;;;;15.52;3.70;;;;;;;2.30;68.85;102091.50;5051384;28;20040;-69
2021/12/20 06:17:19;;;;;;;21.52;4.55;;;;;;;2.46;68.08;102101.06;5050561;28;20110;-68
2021/12/20 06:19:46;;;;;;;17.27;4.50;;;;;;;2.40;68.48;102098.44;5050913;28;20045;-69
2021/12/20 06:22:12;;;;;;;20.83;6.63;;;;;;;2.20;68.41;102093.19;5050688;28;20072;-69
2021/12/20 06:24:39;;;;;;;10.70;4.57;;;;;;;2.25;68.56;102100.97;5051727;28;20068;-69
2021/12/20 06:27:05;;;;;;;13.55;3.20;;;;;;;2.31;68.10;102099.28;5051254;28;20122;-68
2021/12/20 06:29:32;;;;;;;10.05;2.15;;;;;;;2.44;67.75;102103.63;5050761;28;20122;-69
2021/12/20 06:31:58;;;;;;;5.68;2.15;;;;;;;2.21;68.31;102100.09;5050407;28;20413;-68
2021/12/20 06:34:26;;;;;;;11.35;2.22;;;;;;;1.78;70.08;102104.19;5050058;28;20041;-69
2021/12/20 06:36:52;;;;;;;7.60;2.33;;;;;;;2.16;68.60;102095.75;5049439;28;20040;-69
2021/12/20 06:39:19;;;;;;;12.52;2.45;;;;;;;2.29;68.49;102102.72;5051297;28;20136;-68
2021/12/20 06:41:45;;;;;;;10.68;3.80;;;;;;;2.20;68.72;102102.69;5050758;28;20041;-68
2021/12/20 06:44:12;;;;;;;9.27;2.67;;;;;;;2.13;68.75;102106.09;5050675;28;20124;-67
2021/12/20 06:46:41;;;;;;;9.90;1.92;;;;;;;2.09;68.55;102096.59;5051098;28;20052;-67
2021/12/20 06:49:09;;;;;;;6.97;1.90;;;;;;;2.02;69.09;102107.75;5045872;28;20079;-67
2021/12/20 06:51:40;;;;;;;10.60;2.15;;;;;;;1.91;69.52;102103.41;5050520;28;20041;-68
2021/12/20 06:54:06;;;;;;;10.00;2.05;;;;;;;2.29;68.24;102107.91;5050916;28;20103;-68
2021/12/20 06:56:36;;;;;;;9.85;2.55;;;;;;;2.37;67.81;102106.19;5049821;28;20065;-68
2021/12/20 06:59:04;;;;;;;10.13;2.20;;;;;;;2.29;68.22;102102.72;5050754;28;20106;-68
2021/12/20 07:01:31;;;;;;;10.32;2.35;;;;;;;2.43;67.21;102101.91;5050683;28;20068;-67
2021/12/20 07:03:58;;;;;;;12.43;2.17;;;;;;;2.27;67.90;102109.59;5050927;28;20040;-66
2021/12/20 07:06:24;;;;;;;13.80;2.30;;;;;;;2.49;66.80;102106.22;5042072;28;20065;-66
2021/12/20 07:08:52;;;;;;;9.23;1.75;;;;;;;2.23;67.03;102113.91;5049996;28;20068;-66
2021/12/20 07:11:18;;;;;;;18.00;2.53;;;;;;;2.30;67.08;102114.78;5050289;28;20491;-66
2021/12/20 07:13:45;;;;;;;11.93;2.10;;;;;;;2.40;66.85;102112.22;5049675;28;20052;-66
2021/12/20 07:16:12;;;;;;;7.78;2.03;;;;;;;2.52;65.91;102111.41;5049812;28;20049;-66
2021/12/20 07:18:38;;;;;;;8.70;2.08;;;;;;;2.49;66.01;102105.38;5050097;28;20053;-67
2021/12/20 07:21:05;;;;;;;7.03;2.40;;;;;;;2.28;66.79;102112.22;5046238;28;20122;-65
2021/12/20 07:23:31;;;;;;;8.30;3.28;;;;;;;2.40;66.85;102112.22;5049993;28;20060;-65
2021/12/20 07:25:59;;;;;;;9.95;3.08;;;;;;;2.36;66.64;102105.34;5050689;28;20552;-66
2021/12/20 07:28:25;;;;;;;13.85;2.20;;;;;;;2.25;67.19;102119.97;5049396;28;20049;-67
2021/12/20 07:30:51;;;;;;;7.13;2.75;;;;;;;1.94;68.36;102115.50;5048599;28;20048;-66
2021/12/20 07:33:18;;;;;;;6.63;2.33;;;;;;;1.91;68.96;102116.34;5048826;28;20421;-68
2021/12/20 07:35:46;;;;;;;12.18;2.78;;;;;;;1.95;68.27;102118.09;5047147;28;20041;-68
2021/12/20 07:38:14;;;;;;;4.38;1.60;;;;;;;2.18;67.46;102113.00;5049551;28;20068;-68
2021/12/20 07:40:43;;;;;;;9.98;2.30;;;;;;;2.05;67.99;102113.81;5041786;28;20051;-68
2021/12/20 07:43:11;;;;;;;21.65;2.38;;;;;;;1.98;68.50;102106.00;5045025;28;20123;-67
2021/12/20 07:45:37;;;;;;;9.93;2.47;;;;;;;2.08;68.22;102120.72;5041483;28;20053;-67
2021/12/20 07:48:04;;;;;;;5.63;1.75;;;;;;;2.09;67.75;102119.88;5035987;28;20120;-68
2021/12/20 07:50:30;;;;;;;13.35;4.00;;;;;;;2.20;67.73;102128.56;5043463;28;20085;-68
2021/12/20 07:52:57;;;;;;;11.30;3.20;;;;;;;2.09;68.38;102125.03;5047064;28;20048;-68
2021/12/20 07:55:23;;;;;;;8.60;3.38;;;;;;;2.18;68.13;102135.47;5046214;28;20044;-69
2021/12/20 07:57:50;;;;;;;10.07;3.45;;;;;;;1.82;69.40;102133.50;5045064;28;20111;-69
2021/12/20 08:00:18;;;;;;;12.82;2.95;;;;;;;2.06;68.91;102133.66;5048683;28;20063;-68
2021/12/20 08:02:46;;;;;;;11.10;3.40;;;;;;;2.08;68.63;102144.88;5043581;28;20681;-67
2021/12/20 08:05:14;;;;;;;10.18;3.03;;;;;;;2.11;68.71;102141.44;5048036;28;20483;-67
2021/12/20 08:07:40;;;;;;;12.32;3.47;;;;;;;2.13;68.70;102142.31;5044814;28;20064;-67
2021/12/20 08:10:09;;;;;;;13.65;2.75;;;;;;;2.04;68.85;102140.53;5047649;28;20044;-67
2021/12/20 08:12:36;;;;;;;9.95;3.08;;;;;;;1.86;69.71;102143.03;5047957;28;20095;-66
2021/12/20 08:15:02;;;;;;;7.97;2.65;;;;;;;1.61;70.32;102136.81;5048899;28;20076;-68
2021/12/20 08:17:31;;;;;;;13.23;4.35;;;;;;;1.77;69.99;102149.03;5048272;28;20072;-66
2021/12/20 08:19:58;;;;;;;39.72;5.65;;;;;;;2.05;69.39;102139.69;5046964;28;20041;-65
2021/12/20 08:22:25;;;;;;;9.88;3.50;;;;;;;2.21;68.46;102140.66;5045499;28;20485;-65
2021/12/20 08:24:52;;;;;;;9.10;2.42;;;;;;;2.29;68.30;102144.13;5048331;28;20129;-65
2021/12/20 08:27:18;;;;;;;11.15;2.90;;;;;;;2.57;67.94;102147.69;5047434;28;20110;-65
2021/12/20 08:29:45;;;;;;;11.20;2.90;;;;;;;2.62;67.56;102143.41;5044110;28;20075;-66
2021/12/20 08:32:11;;;;;;;8.60;3.03;;;;;;;2.88;66.67;102157.28;5047612;28;20072;-66
2021/12/20 08:34:39;;;;;;;12.65;2.08;;;;;;;2.95;66.87;102151.25;5035764;28;20107;-65
2021/12/20 08:37:05;;;;;;;7.78;2.40;;;;;;;3.02;66.03;102154.72;5046381;28;20134;-65
2021/12/20 08:39:33;;;;;;;7.43;2.30;;;;;;;2.84;66.64;102147.78;5042477;28;20053;-66
2021/12/20 08:42:02;;;;;;;11.98;2.72;;;;;;;2.71;66.87;102149.47;5047601;28;20493;-66
2021/12/20 08:44:30;;;;;;;19.70;2.95;;;;;;;2.96;66.56;102145.19;5049062;28;20041;-66
2021/12/20 08:46:58;;;;;;;11.98;2.40;;;;;;;2.85;67.09;102152.94;5047674;28;20134;-65
2021/12/20 08:49:25;;;;;;;15.93;2.75;;;;;;;2.73;67.16;102154.66;5047581;28;20069;-65
2021/12/20 08:51:54;;;;;;;8.00;2.30;;;;;;;3.10;66.04;102163.38;5047673;28;20068;-65
2021/12/20 08:54:23;;;;;;;11.80;2.53;;;;;;;3.10;66.65;102169.44;5048540;28;20086;-65
2021/12/20 08:56:49;;;;;;;8.40;2.20;;;;;;;2.93;66.79;102176.28;5047226;28;20055;-65
2021/12/20 08:59:16;;;;;;;23.20;3.25;;;;;;;3.43;65.96;102171.19;5044182;28;20099;-66
2021/12/20 09:01:42;;;;;;;8.65;2.67;;;;;;;3.65;64.99;102170.31;5046761;28;20069;-66
2021/12/20 09:04:11;;;;;;;11.55;2.92;;;;;;;3.81;64.46;102174.59;5048372;28;20134;-66
2021/12/20 09:06:40;;;;;;;6.20;2.28;;;;;;;4.02;64.32;102176.31;5047368;28;20056;-66
2021/12/20 09:09:08;;;;;;;6.13;2.10;;;;;;;4.25;62.69;102189.25;5043890;28;20045;-66
2021/12/20 09:11:35;;;;;;;8.70;2.97;;;;;;;4.49;62.53;102189.16;5047590;28;20076;-66
2021/12/20 09:14:02;;;;;;;10.23;2.72;;;;;;;4.61;61.93;102191.72;5048398;28;20049;-67
2021/12/20 09:16:28;;;;;;;8.25;2.50;;;;;;;4.84;61.12;102183.81;5040145;28;20044;-68
2021/12/20 09:18:55;;;;;;;12.45;2.50;;;;;;;5.13;60.71;102194.03;5046529;28;20470;-68
2021/12/20 09:21:21;;;;;;;11.70;2.63;;;;;;;5.40;59.78;102183.44;5050613;28;20064;-68
2021/12/20 09:23:48;;;;;;;13.07;2.45;;;;;;;5.61;58.46;102185.91;5032523;28;20464;-68
2021/12/20 09:26:16;;;;;;;6.72;2.60;;;;;;;6.12;57.18;102187.19;5037016;28;20053;-68
2021/12/20 09:28:43;;;;;;;12.18;2.63;;;;;;;6.90;54.82;102183.63;5051498;28;20057;-68
2021/12/20 09:31:10;;;;;;;7.55;2.50;;;;;;;7.17;53.42;102176.25;5050606;28;20118;-68
2021/12/20 09:33:36;;;;;;;10.95;2.92;;;;;;;7.42;53.82;102189.81;5051380;28;20614;-69
2021/12/20 09:36:05;;;;;;;7.53;2.42;;;;;;;7.58;52.61;102199.09;5051080;28;20571;-69
2021/12/20 09:38:32;;;;;;;9.55;2.70;;;;;;;7.69;52.42;102201.53;5049694;28;20037;-69
2021/12/20 09:41:16;;;;;;;11.63;2.92;;;;;;;8.15;50.82;102201.63;5051899;28;20048;-69
2021/12/20 09:43:47;;;;;;;9.57;3.10;;;;;;;8.22;50.88;102193.63;5050363;28;20061;-68
2021/12/20 09:46:15;;;;;;;12.48;3.08;;;;;;;8.49;51.07;102192.28;5052847;28;20057;-70
2021/12/20 09:48:44;;;;;;;10.85;4.00;;;;;;;8.66;49.95;102189.31;5051621;28;20118;-69
2021/12/20 09:51:10;;;;;;;15.05;4.75;;;;;;;9.02;48.95;102192.88;5050281;28;20040;-69
2021/12/20 09:53:37;;;;;;;15.32;5.95;;;;;;;8.92;49.26;102200.06;5050869;28;20086;-68
2021/12/20 09:56:05;;;;;;;14.10;4.80;;;;;;;8.97;48.74;102195.63;5051082;28;20459;-68
2021/12/20 09:58:35;;;;;;;9.05;3.25;;;;;;;9.02;48.54;102193.75;5050862;28;20114;-70
2021/12/20 10:01:04;;;;;;;11.57;3.30;;;;;;;9.10;49.46;102193.56;5047191;28;20064;-69
2021/12/20 10:03:30;;;;;;;13.73;3.40;;;;;;;9.27;48.05;102201.91;5051237;28;20094;-71
2021/12/20 10:05:57;;;;;;;11.20;3.10;;;;;;;8.88;49.34;102208.88;5051327;28;20102;-71
2021/12/20 10:08:32;;;;;;;8.18;3.75;;;;;;;9.60;48.88;102211.59;5051073;28;20520;-69
2021/12/20 10:10:59;;;;;;;9.18;3.03;;;;;;;9.53;48.09;102214.41;5050974;28;20044;-69
2021/12/20 10:13:28;;;;;;;4.55;2.80;;;;;;;9.95;46.34;102205.47;5051018;28;20069;-69
2021/12/20 10:15:56;;;;;;;8.02;3.13;;;;;;;10.34;46.20;102211.44;5047548;28;20049;-69
2021/12/20 10:18:25;;;;;;;7.53;3.25;;;;;;;9.75;46.19;102203.34;5030735;28;20497;-68
2021/12/20 10:20:53;;;;;;;11.13;3.05;;;;;;;10.03;46.03;102215.75;5031570;28;20132;-69
2021/12/20 10:23:22;;;;;;;7.78;3.03;;;;;;;9.79;47.00;102212.84;5031231;28;20069;-69
2021/12/20 10:25:52;;;;;;;5.90;2.70;;;;;;;9.97;46.68;102210.66;5031050;28;20046;-69
2021/12/20 10:28:21;;;;;;;9.18;2.97;;;;;;;10.41;46.91;102212.13;5048099;28;20041;-69
2021/12/20 10:30:50;;;;;;;13.43;2.65;;;;;;;10.47;45.40;102219.81;5048901;28;20475;-68
2021/12/20 10:33:18;;;;;;;8.50;2.85;;;;;;;10.30;46.23;102214.19;5049893;28;20143;-68
2021/12/20 10:35:49;;;;;;;6.22;2.75;;;;;;;10.46;45.62;102211.09;5042840;28;20111;-68
2021/12/20 10:38:32;;;;;;;10.48;3.42;;;;;;;10.53;46.29;102210.00;5047162;28;20056;-68
2021/12/20 10:41:03;;;;;;;7.07;2.53;;;;;;;10.47;46.18;102218.06;5045161;28;20048;-68
2021/12/20 10:43:35;;;;;;;12.32;3.30;;;;;;;10.47;46.14;102212.81;5049648;28;20099;-68
2021/12/20 10:46:09;;;;;;;5.88;2.67;;;;;;;10.63;46.08;102208.00;5049672;28;20051;-68
2021/12/20 10:48:36;;;;;;;5.68;2.92;;;;;;;10.84;45.13;102209.13;5049865;28;20078;-68
2021/12/20 10:51:04;;;;;;;9.02;2.85;;;;;;;10.59;46.35;102214.25;5050299;28;20119;-69
2021/12/20 10:53:30;;;;;;;5.68;2.83;;;;;;;10.37;45.85;102210.50;5043589;28;20493;-69
2021/12/20 10:55:58;;;;;;;10.88;3.33;;;;;;;10.61;45.65;102205.41;5050550;28;20049;-69
2021/12/20 10:58:31;;;;;;;8.27;2.97;;;;;;;10.20;47.25;102209.19;5050696;28;20098;-68
2021/12/20 11:01:12;;;;;;;9.13;2.78;;;;;;;10.45;46.36;102212.00;5048586;28;20049;-68
2021/12/20 11:03:41;;;;;;;9.70;3.25;;;;;;;10.11;46.29;102216.41;5047601;28;20132;-69
2021/12/20 11:09:06;;;;;;;6.10;2.83;;;;;;;9.99;46.47;102216.72;5040996;28;20052;-68
2021/12/20 11:11:34;;;;;;;10.05;2.97;;;;;;;10.16;47.58;102212.78;5048840;28;20505;-68
2021/12/20 11:14:01;;;;;;;10.40;2.90;;;;;;;10.71;46.94;102217.38;5050475;28;20055;-69
2021/12/20 11:16:30;;;;;;;9.32;3.47;;;;;;;10.57;47.10;102214.28;5050044;28;20049;-70
2021/12/20 11:19:17;;;;;;;7.00;2.70;;;;;;;10.64;46.79;102205.31;5032618;28;20154;-70
2021/12/20 11:21:54;;;;;;;5.95;3.15;;;;;;;10.25;46.94;102195.97;5034827;28;20107;-69
2021/12/20 11:24:23;;;;;;;7.60;3.05;;;;;;;10.44;47.04;102201.56;5049947;28;20052;-69
2021/12/20 11:26:51;;;;;;;10.48;2.88;;;;;;;10.67;46.23;102192.16;5048466;28;20139;-68
2021/12/20 11:29:18;;;;;;;6.18;2.40;;;;;;;10.57;46.32;102195.91;5049972;28;20583;-69
2021/12/20 11:31:45;;;;;;;5.28;3.15;;;;;;;10.56;49.00;102194.22;5048703;28;20456;-70
2021/12/20 11:34:11;;;;;;;8.05;2.72;;;;;;;10.40;47.83;102198.16;5049020;28;20107;-70
2021/12/20 11:36:38;;;;;;;9.38;3.03;;;;;;;10.82;48.74;102197.84;5049354;28;20063;-69
2021/12/20 11:39:08;;;;;;;8.63;2.30;;;;;;;10.81;46.06;102201.38;5034743;28;20490;-69
2021/12/20 11:41:35;;;;;;;5.03;2.35;;;;;;;10.32;48.37;102207.13;5042988;28;20046;-69
2021/12/20 11:44:04;;;;;;;9.73;2.58;;;;;;;10.51;47.51;102203.09;5030335;28;20571;-69
2021/12/20 11:46:38;;;;;;;7.32;2.58;;;;;;;9.95;48.29;102186.25;5031804;28;20037;-69